This is the latest recevied weather packets stored in our database for station/object CA3EAP-13. If no packets are shown the sender has not sent any weather packets the latest 10 day(s).
| Time | Temp. | Humidity | Pressure | Rain* | Wind** | Luminosity | Snow |
|---|---|---|---|---|---|---|---|
| 1777917305 | 23.89° C | 24% | 1011.8 hPa | - | - | - | - |
| 1777916705 | 23.33° C | 25% | 1012.1 hPa | - | - | - | - |
| 1777916105 | 23.33° C | 25% | 1012.3 hPa | - | - | - | - |
| 1777915505 | 23.33° C | 25% | 1012.3 hPa | - | - | - | - |
| 1777914905 | 23.33° C | 25% | 1012.5 hPa | - | - | - | - |
| 1777914305 | 23.33° C | 25% | 1012.6 hPa | - | - | - | - |
| 1777913705 | 23.33° C | 25% | 1012.8 hPa | - | - | - | - |
| 1777913105 | 22.78° C | 26% | 1012.9 hPa | - | - | - | - |
| 1777912505 | 23.33° C | 26% | 1013 hPa | - | - | - | - |
| 1777911905 | 23.33° C | 25% | 1013 hPa | - | - | - | - |
| 1777911305 | 23.33° C | 24% | 1013.1 hPa | - | - | - | - |
| 1777910705 | 22.78° C | 26% | 1013.3 hPa | - | - | - | - |
| 1777910105 | 22.78° C | 26% | 1013.4 hPa | - | - | - | - |
| 1777909505 | 22.78° C | 26% | 1013.5 hPa | - | - | - | - |
| 1777908905 | 22.78° C | 26% | 1013.5 hPa | - | - | - | - |
| 1777908305 | 21.67° C | 27% | 1013.8 hPa | - | - | - | - |
| 1777907705 | 21.67° C | 27% | 1013.7 hPa | - | - | - | - |
| 1777907105 | 21.11° C | 28% | 1013.9 hPa | - | - | - | - |
| 1777906505 | 20.56° C | 31% | 1014.1 hPa | - | - | - | - |
| 1777905905 | 20° C | 32% | 1014.2 hPa | - | - | - | - |
| 1777905305 | 20° C | 32% | 1014.3 hPa | - | - | - | - |
| 1777904705 | 19.44° C | 35% | 1014.4 hPa | - | - | - | - |
| 1777904105 | 19.44° C | 36% | 1014.5 hPa | - | - | - | - |
| 1777903505 | 19.44° C | 36% | 1014.5 hPa | - | - | - | - |
| 1777902905 | 19.44° C | 35% | 1014.4 hPa | - | - | - | - |
* Rain since midnight (hover to see other rain measurements)
** Current wind speed in m/s (hover to see current wind gust speed)